createdAt,value
2019-05-10T03:40:43.796Z,81.42
2019-05-10T03:45:44.967Z,80.07
2019-05-10T03:50:46.296Z,80.74
2019-05-10T03:55:47.174Z,80.34
2019-05-10T04:00:48.062Z,80.47
2019-05-10T04:05:48.926Z,82.01
2019-05-10T04:10:50.708Z,80.35
2019-05-10T04:15:53.486Z,80.53
2019-05-10T04:20:54.468Z,79.44
2019-05-10T04:25:56.807Z,80.43
2019-05-10T04:30:57.676Z,80.41
2019-05-10T04:35:59.567Z,80.44
2019-05-10T04:41:01.344Z,78.23
2019-05-10T04:46:02.716Z,79.58
2019-05-10T04:51:05.303Z,79.09
2019-05-10T04:56:06.194Z,78.02
2019-05-10T05:01:07.375Z,78.02
2019-05-10T05:06:08.337Z,80.13
2019-05-10T05:11:09.222Z,79.05
2019-05-10T05:16:10.104Z,77.75
2019-05-10T05:21:11.073Z,77.93
2019-05-10T05:26:11.945Z,76.58
2019-05-10T05:31:12.843Z,77.00
2019-05-10T05:36:13.714Z,76.40
2019-05-10T05:41:14.588Z,76.48
2019-05-10T05:46:15.469Z,75.03
2019-05-10T05:51:16.445Z,74.75
2019-05-10T05:56:17.343Z,72.99
2019-05-10T06:01:26.212Z,73.79
2019-05-10T06:06:23.260Z,74.01
2019-05-10T06:11:23.893Z,74.79
2019-05-10T06:16:24.767Z,71.26
2019-05-10T06:21:26.847Z,70.30
2019-05-10T06:26:28.782Z,71.29
2019-05-10T06:31:30.046Z,69.53
2019-05-10T06:36:30.873Z,68.91
2019-05-10T06:41:32.653Z,69.50
2019-05-10T06:46:33.744Z,70.52
2019-05-10T06:51:34.619Z,69.34
2019-05-10T06:56:35.507Z,68.56
2019-05-10T07:01:38.271Z,69.21
2019-05-10T07:06:39.179Z,68.23
2019-05-10T07:11:40.036Z,66.77
2019-05-10T07:16:40.917Z,67.25
2019-05-10T07:21:44.752Z,63.92
2019-05-10T07:26:44.681Z,65.54
2019-05-10T07:31:45.570Z,63.59
2019-05-10T07:36:46.551Z,60.12
2019-05-10T07:41:47.437Z,62.90
2019-05-10T07:46:53.844Z,61.27
2019-05-10T07:51:51.234Z,61.68
2019-05-10T07:56:52.137Z,61.87
2019-05-10T08:01:53.013Z,60.93
2019-05-10T08:06:53.887Z,59.56
2019-05-10T08:12:03.191Z,59.72
2019-05-10T08:17:01.918Z,58.38
2019-05-10T08:22:02.019Z,58.25
2019-05-10T08:27:09.746Z,57.53
2019-05-10T08:32:06.452Z,57.51
2019-05-10T08:37:07.325Z,57.17
2019-05-10T08:42:27.603Z,56.07
2019-05-10T08:47:15.753Z,55.45
2019-05-10T08:52:13.916Z,55.66
2019-05-10T09:02:34.016Z,56.58
2019-05-10T09:07:39.023Z,55.87
2019-05-10T09:12:41.818Z,55.76
2019-05-10T09:17:42.853Z,53.30
2019-05-10T09:22:43.388Z,55.76
2019-05-10T09:27:44.288Z,57.54
2019-05-10T09:32:45.162Z,55.97
2019-05-10T09:37:47.673Z,55.33
2019-05-10T09:42:48.912Z,54.97
2019-05-10T09:47:52.880Z,51.33
2019-05-10T09:52:53.342Z,54.79
2019-05-10T09:57:54.224Z,51.60
2019-05-10T10:02:56.653Z,52.18
2019-05-10T10:07:57.934Z,53.65
2019-05-10T10:13:08.515Z,52.86
2019-05-10T10:18:02.602Z,52.40
2019-05-10T10:23:03.476Z,54.36
2019-05-10T10:28:08.203Z,56.00
2019-05-10T10:33:11.354Z,54.50
2019-05-10T10:38:10.058Z,56.13
2019-05-10T10:43:10.916Z,60.93
2019-05-10T10:48:13.031Z,64.89
2019-05-10T10:53:14.160Z,65.22
2019-05-10T10:58:15.067Z,66.14
2019-05-10T11:03:15.943Z,67.70
2019-05-10T11:08:16.823Z,66.67
2019-05-10T11:13:20.483Z,65.22
2019-05-10T11:18:21.644Z,64.69
2019-05-10T11:23:24.496Z,66.05
2019-05-10T11:28:32.509Z,66.52
2019-05-10T11:33:32.848Z,67.68
2019-05-10T11:38:31.987Z,67.60
2019-05-10T11:43:32.919Z,66.70
2019-05-10T11:48:37.183Z,62.33
2019-05-10T11:53:36.594Z,63.56
2019-05-10T11:58:45.030Z,62.72
2019-05-10T12:03:42.402Z,61.91
2019-05-10T12:08:43.097Z,56.67
2019-05-10T12:13:44.064Z,54.46
2019-05-10T12:19:00.774Z,51.99
2019-05-10T12:23:56.298Z,53.53
2019-05-10T12:29:02.759Z,53.49
2019-05-10T12:34:02.507Z,52.91
2019-05-10T12:39:01.768Z,49.94
2019-05-10T12:44:07.245Z,51.10
2019-05-10T12:49:06.176Z,50.37
2019-05-10T12:54:07.032Z,49.64
2019-05-10T12:59:07.920Z,49.50
2019-05-10T13:04:14.548Z,48.82
2019-05-10T13:09:11.692Z,48.41
2019-05-10T13:14:12.573Z,48.70
2019-05-10T13:19:19.871Z,47.16
2019-05-10T13:24:16.332Z,45.00
2019-05-10T13:29:17.208Z,44.77
2019-05-10T13:34:18.081Z,43.31
2019-05-10T13:39:24.819Z,43.15
2019-05-10T13:44:21.724Z,44.51
2019-05-10T13:49:22.595Z,41.09
2019-05-10T13:54:23.480Z,44.82
2019-05-10T13:59:27.266Z,47.65
2019-05-10T14:04:34.005Z,65.67
2019-05-10T14:09:32.718Z,67.37
2019-05-10T14:14:33.588Z,67.26
2019-05-10T14:19:35.996Z,68.28
2019-05-10T14:24:46.702Z,68.69
2019-05-10T14:29:46.360Z,69.90
2019-05-10T14:34:49.048Z,69.82
2019-05-10T14:39:52.402Z,66.86
2019-05-10T14:45:01.761Z,67.26
2019-05-10T14:50:04.975Z,64.81
2019-05-10T14:55:06.320Z,64.85
2019-05-10T15:00:07.680Z,63.07
2019-05-10T15:05:15.980Z,61.71
2019-05-10T15:10:11.813Z,62.05
2019-05-10T15:15:12.853Z,61.62
2019-05-10T15:20:14.365Z,59.30
2019-05-10T15:25:15.639Z,59.00
2019-05-10T15:30:16.813Z,58.61
2019-05-10T15:35:17.691Z,59.00
2019-05-10T15:40:19.571Z,58.67
2019-05-10T15:45:20.552Z,57.67
2019-05-10T15:50:21.966Z,55.89
2019-05-10T15:55:27.261Z,56.85
2019-05-10T16:00:31.451Z,56.43
2019-05-10T16:05:42.384Z,55.27
2019-05-10T16:10:38.766Z,56.56
2019-05-10T16:15:34.067Z,56.68
2019-05-10T16:20:37.080Z,55.84
2019-05-10T16:25:42.935Z,55.11
2019-05-10T16:30:41.398Z,54.60
2019-05-10T16:35:44.085Z,57.10
2019-05-10T16:40:57.298Z,56.95
2019-05-10T16:45:47.911Z,57.83
2019-05-10T16:50:48.763Z,58.75
2019-05-10T16:55:49.632Z,57.58
2019-05-10T17:00:50.531Z,57.16
2019-05-10T17:05:53.815Z,60.97
2019-05-10T17:10:54.548Z,60.84
2019-05-10T17:15:59.028Z,61.34
2019-05-10T17:21:00.029Z,61.62
2019-05-10T17:26:00.905Z,61.55
2019-05-10T17:31:07.909Z,61.73
2019-05-10T17:36:08.313Z,61.93
2019-05-10T17:41:09.527Z,62.60
2019-05-10T17:46:12.645Z,63.87
2019-05-10T17:51:14.196Z,63.15
2019-05-10T17:56:15.985Z,63.56
2019-05-10T18:01:17.848Z,65.31
2019-05-10T18:06:24.057Z,64.27
2019-05-10T18:11:22.025Z,64.53
2019-05-10T18:16:22.992Z,64.74
2019-05-10T18:21:25.009Z,65.61
2019-05-10T18:26:26.291Z,66.85
2019-05-10T18:31:27.964Z,68.58
2019-05-10T18:36:50.412Z,68.46
2019-05-10T18:41:35.468Z,70.20
2019-05-10T18:46:37.716Z,70.41
2019-05-10T18:51:38.794Z,70.27
2019-05-10T18:56:39.918Z,70.74
2019-05-10T19:01:42.478Z,70.36
2019-05-10T19:06:49.322Z,71.25
2019-05-10T19:11:47.068Z,70.89
2019-05-10T19:16:48.306Z,74.27
2019-05-10T19:21:49.263Z,73.28
2019-05-10T19:26:50.141Z,73.83
2019-05-10T19:31:51.611Z,72.49
2019-05-10T19:36:52.621Z,75.16
2019-05-10T19:42:02.906Z,72.48
2019-05-10T19:46:56.804Z,75.36
2019-05-10T19:51:59.966Z,74.91
2019-05-10T19:57:02.821Z,74.50
2019-05-10T20:02:03.794Z,74.56
2019-05-10T20:07:04.669Z,73.12
2019-05-10T20:12:05.540Z,74.44
2019-05-10T20:17:06.462Z,76.69
2019-05-10T20:22:07.331Z,74.99
2019-05-10T20:27:08.203Z,76.20
2019-05-10T20:32:09.100Z,74.40
2019-05-10T20:37:10.095Z,74.19
2019-05-10T20:42:11.000Z,77.12
2019-05-10T20:47:11.870Z,76.59
2019-05-10T20:52:13.052Z,77.81
2019-05-10T20:57:13.934Z,76.65
2019-05-10T21:02:14.873Z,76.13
2019-05-10T21:07:15.770Z,79.14
2019-05-10T21:12:16.904Z,77.62
2019-05-10T21:17:17.783Z,76.92
2019-05-10T21:22:18.681Z,76.35
2019-05-10T21:27:19.952Z,75.89
2019-05-10T21:32:20.860Z,74.48
2019-05-10T21:37:21.740Z,76.85
2019-05-10T21:42:22.655Z,76.68
2019-05-10T21:47:23.601Z,75.72
2019-05-10T21:52:24.485Z,76.67
2019-05-10T21:57:25.368Z,77.02
2019-05-10T22:02:26.508Z,76.11
2019-05-10T22:07:28.287Z,77.11
2019-05-10T22:12:30.543Z,78.29
2019-05-10T22:17:33.244Z,77.35
2019-05-10T22:22:34.534Z,79.60
2019-05-10T22:27:35.425Z,79.60
2019-05-10T22:32:36.704Z,77.47
2019-05-10T22:37:37.623Z,76.22
2019-05-10T22:42:38.516Z,76.22
2019-05-10T22:47:39.371Z,76.32
2019-05-10T22:52:40.399Z,76.76
2019-05-10T22:57:41.758Z,77.16
2019-05-10T23:02:42.621Z,79.23
2019-05-10T23:07:43.533Z,77.11
2019-05-10T23:12:44.427Z,77.09
2019-05-10T23:17:45.308Z,79.12
2019-05-10T23:22:46.175Z,77.94
2019-05-10T23:27:47.064Z,77.41
2019-05-10T23:32:47.935Z,77.94
2019-05-10T23:37:48.824Z,79.26
2019-05-10T23:42:49.694Z,78.57
2019-05-10T23:47:50.554Z,78.45
2019-05-10T23:52:51.455Z,80.63
2019-05-10T23:57:52.436Z,79.83
